sensor_id;sensor_type;location;lat;lon;timestamp;pressure;altitude;pressure_sealevel;temperature;humidity
73558;BME280;61829;53.286;10.434;2022-10-31T00:01:21;101634.44;;;11.16;95.49
73558;BME280;61829;53.286;10.434;2022-10-31T00:03:48;101636.97;;;11.17;94.97
73558;BME280;61829;53.286;10.434;2022-10-31T00:06:14;101631.75;;;11.16;95.45
73558;BME280;61829;53.286;10.434;2022-10-31T00:08:49;101630.91;;;11.15;96.85
73558;BME280;61829;53.286;10.434;2022-10-31T00:11:17;101635.28;;;11.16;96.60
73558;BME280;61829;53.286;10.434;2022-10-31T00:13:43;101640.69;;;11.16;96.73
73558;BME280;61829;53.286;10.434;2022-10-31T00:16:19;101642.53;;;11.16;96.16
73558;BME280;61829;53.286;10.434;2022-10-31T00:18:54;101639.00;;;11.15;96.68
73558;BME280;61829;53.286;10.434;2022-10-31T00:21:20;101646.91;;;11.17;96.30
73558;BME280;61829;53.286;10.434;2022-10-31T00:23:46;101645.25;;;11.16;96.62
73558;BME280;61829;53.286;10.434;2022-10-31T00:26:13;101641.84;;;11.14;96.11
73558;BME280;61829;53.286;10.434;2022-10-31T00:28:39;101643.72;;;11.13;95.42
73558;BME280;61829;53.286;10.434;2022-10-31T00:31:07;101651.97;;;11.12;95.27
73558;BME280;61829;53.286;10.434;2022-10-31T00:33:34;101649.44;;;11.10;94.35
73558;BME280;61829;53.286;10.434;2022-10-31T00:36:03;101660.25;;;11.10;94.83
73558;BME280;61829;53.286;10.434;2022-10-31T00:38:29;101654.00;;;11.10;94.94
73558;BME280;61829;53.286;10.434;2022-10-31T00:40:55;101645.91;;;11.10;95.04
73558;BME280;61829;53.286;10.434;2022-10-31T00:43:21;101646.91;;;11.09;94.70
73558;BME280;61829;53.286;10.434;2022-10-31T00:45:47;101646.06;;;11.08;94.43
73558;BME280;61829;53.286;10.434;2022-10-31T00:48:13;101648.94;;;11.07;94.93
73558;BME280;61829;53.286;10.434;2022-10-31T00:50:39;101647.09;;;11.07;95.16
73558;BME280;61829;53.286;10.434;2022-10-31T00:53:06;101652.66;;;11.06;95.05
73558;BME280;61829;53.286;10.434;2022-10-31T00:55:32;101651.97;;;11.04;94.84
73558;BME280;61829;53.286;10.434;2022-10-31T00:57:58;101650.28;;;11.02;95.06
73558;BME280;61829;53.286;10.434;2022-10-31T01:00:25;101649.44;;;11.02;94.59
73558;BME280;61829;53.286;10.434;2022-10-31T01:02:51;101656.84;;;11.00;95.36
73558;BME280;61829;53.286;10.434;2022-10-31T01:05:18;101656.00;;;10.99;95.11
73558;BME280;61829;53.286;10.434;2022-10-31T01:07:44;101643.56;;;10.98;95.70
73558;BME280;61829;53.286;10.434;2022-10-31T01:10:11;101653.47;;;10.98;95.28
73558;BME280;61829;53.286;10.434;2022-10-31T01:12:42;101662.59;;;10.97;95.23
73558;BME280;61829;53.286;10.434;2022-10-31T01:15:11;101651.09;;;10.95;95.64
73558;BME280;61829;53.286;10.434;2022-10-31T01:17:37;101660.22;;;10.94;95.45
73558;BME280;61829;53.286;10.434;2022-10-31T01:20:05;101660.38;;;10.92;95.49
73558;BME280;61829;53.286;10.434;2022-10-31T01:22:31;101664.09;;;10.91;95.70
73558;BME280;61829;53.286;10.434;2022-10-31T01:24:57;101666.78;;;10.91;95.51
73558;BME280;61829;53.286;10.434;2022-10-31T01:27:23;101656.34;;;10.88;95.52
73558;BME280;61829;53.286;10.434;2022-10-31T01:29:49;101659.03;;;10.88;96.05
73558;BME280;61829;53.286;10.434;2022-10-31T01:32:15;101661.88;;;10.87;96.04
73558;BME280;61829;53.286;10.434;2022-10-31T01:34:41;101666.44;;;10.86;96.18
73558;BME280;61829;53.286;10.434;2022-10-31T01:37:07;101674.53;;;10.86;96.14
73558;BME280;61829;53.286;10.434;2022-10-31T01:39:33;101671.84;;;10.86;96.26
73558;BME280;61829;53.286;10.434;2022-10-31T01:41:59;101662.91;;;10.86;96.34
73558;BME280;61829;53.286;10.434;2022-10-31T01:47:01;101678.41;;;10.84;96.64
73558;BME280;61829;53.286;10.434;2022-10-31T01:49:57;101688.34;;;10.83;96.05
73558;BME280;61829;53.286;10.434;2022-10-31T01:52:26;101694.91;;;10.81;95.88
73558;BME280;61829;53.286;10.434;2022-10-31T01:55:05;101695.94;;;10.79;96.25
73558;BME280;61829;53.286;10.434;2022-10-31T01:57:34;101699.66;;;10.78;96.91
73558;BME280;61829;53.286;10.434;2022-10-31T02:00:06;101699.66;;;10.78;97.39
73558;BME280;61829;53.286;10.434;2022-10-31T02:02:32;101698.78;;;10.78;97.52
73558;BME280;61829;53.286;10.434;2022-10-31T02:05:00;101699.94;;;10.75;97.96
73558;BME280;61829;53.286;10.434;2022-10-31T02:07:51;101699.94;;;10.75;97.83
73558;BME280;61829;53.286;10.434;2022-10-31T02:10:23;101713.59;;;10.74;97.47
73558;BME280;61829;53.286;10.434;2022-10-31T02:12:55;101717.47;;;10.71;97.09
73558;BME280;61829;53.286;10.434;2022-10-31T02:15:22;101718.63;;;10.69;97.15
73558;BME280;61829;53.286;10.434;2022-10-31T02:17:48;101712.41;;;10.68;98.08
73558;BME280;61829;53.286;10.434;2022-10-31T02:20:18;101716.97;;;10.68;97.88
73558;BME280;61829;53.286;10.434;2022-10-31T02:28:19;101721.19;;;10.70;98.37
73558;BME280;61829;53.286;10.434;2022-10-31T02:33:45;101718.50;;;10.70;99.86
73558;BME280;61829;53.286;10.434;2022-10-31T02:36:26;101718.50;;;10.70;99.48
73558;BME280;61829;53.286;10.434;2022-10-31T02:39:02;101718.50;;;10.70;100.00
73558;BME280;61829;53.286;10.434;2022-10-31T02:41:41;101718.31;;;10.72;100.00
73558;BME280;61829;53.286;10.434;2022-10-31T02:51:48;101727.94;;;10.83;100.00
73558;BME280;61829;53.286;10.434;2022-10-31T02:54:21;101734.69;;;10.87;100.00
73558;BME280;61829;53.286;10.434;2022-10-31T02:56:48;101727.97;;;10.91;100.00
73558;BME280;61829;53.286;10.434;2022-10-31T02:59:17;101726.63;;;10.95;100.00
73558;BME280;61829;53.286;10.434;2022-10-31T03:02:05;101728.66;;;11.01;100.00
73558;BME280;61829;53.286;10.434;2022-10-31T03:07:07;101735.09;;;11.08;100.00
73558;BME280;61829;53.286;10.434;2022-10-31T03:17:26;101749.44;;;11.25;100.00
73558;BME280;61829;53.286;10.434;2022-10-31T03:19:58;101746.25;;;11.30;100.00
73558;BME280;61829;53.286;10.434;2022-10-31T03:22:29;101758.41;;;11.34;100.00
73558;BME280;61829;53.286;10.434;2022-10-31T03:24:58;101753.50;;;11.37;100.00
73558;BME280;61829;53.286;10.434;2022-10-31T03:27:28;101749.28;;;11.43;100.00
73558;BME280;61829;53.286;10.434;2022-10-31T03:29:56;101753.34;;;11.47;100.00
73558;BME280;61829;53.286;10.434;2022-10-31T03:32:37;101760.94;;;11.52;100.00
73558;BME280;61829;53.286;10.434;2022-10-31T03:35:05;101760.28;;;11.58;100.00
73558;BME280;61829;53.286;10.434;2022-10-31T03:37:35;101761.63;;;11.62;100.00
73558;BME280;61829;53.286;10.434;2022-10-31T03:40:05;101766.69;;;11.65;100.00
73558;BME280;61829;53.286;10.434;2022-10-31T03:42:34;101770.72;;;11.69;100.00
73558;BME280;61829;53.286;10.434;2022-10-31T03:45:10;101778.50;;;11.72;100.00
73558;BME280;61829;53.286;10.434;2022-10-31T03:47:38;101785.22;;;11.76;100.00
73558;BME280;61829;53.286;10.434;2022-10-31T03:50:06;101785.91;;;11.78;100.00
73558;BME280;61829;53.286;10.434;2022-10-31T03:55:39;101786.25;;;11.83;100.00
73558;BME280;61829;53.286;10.434;2022-10-31T03:58:11;101792.50;;;11.84;100.00
73558;BME280;61829;53.286;10.434;2022-10-31T04:00:43;101790.47;;;11.86;100.00
73558;BME280;61829;53.286;10.434;2022-10-31T04:03:17;101798.44;;;11.87;100.00
73558;BME280;61829;53.286;10.434;2022-10-31T04:05:47;101797.25;;;11.90;100.00
73558;BME280;61829;53.286;10.434;2022-10-31T04:08:17;101809.09;;;11.89;100.00
73558;BME280;61829;53.286;10.434;2022-10-31T04:10:48;101803.50;;;11.90;100.00
73558;BME280;61829;53.286;10.434;2022-10-31T04:13:19;101798.59;;;11.94;100.00
73558;BME280;61829;53.286;10.434;2022-10-31T04:15:47;101803.00;;;11.95;100.00
73558;BME280;61829;53.286;10.434;2022-10-31T04:18:14;101803.84;;;11.96;100.00
73558;BME280;61829;53.286;10.434;2022-10-31T04:20:41;101801.97;;;11.96;100.00
73558;BME280;61829;53.286;10.434;2022-10-31T04:23:13;101810.91;;;11.97;100.00
73558;BME280;61829;53.286;10.434;2022-10-31T04:25:42;101807.22;;;11.98;100.00
73558;BME280;61829;53.286;10.434;2022-10-31T04:28:08;101809.72;;;11.99;100.00
73558;BME280;61829;53.286;10.434;2022-10-31T04:30:33;101803.50;;;11.99;100.00
73558;BME280;61829;53.286;10.434;2022-10-31T04:33:00;101801.63;;;11.99;100.00
73558;BME280;61829;53.286;10.434;2022-10-31T04:35:26;101808.72;;;12.00;100.00
73558;BME280;61829;53.286;10.434;2022-10-31T04:37:52;101807.88;;;12.00;100.00
73558;BME280;61829;53.286;10.434;2022-10-31T04:40:18;101811.59;;;11.99;100.00
73558;BME280;61829;53.286;10.434;2022-10-31T04:42:44;101809.72;;;11.99;100.00
73558;BME280;61829;53.286;10.434;2022-10-31T04:45:10;101804.50;;;11.98;100.00
73558;BME280;61829;53.286;10.434;2022-10-31T04:47:36;101815.31;;;11.98;100.00
73558;BME280;61829;53.286;10.434;2022-10-31T04:50:03;101822.56;;;11.97;100.00
73558;BME280;61829;53.286;10.434;2022-10-31T04:52:29;101817.16;;;11.97;100.00
73558;BME280;61829;53.286;10.434;2022-10-31T04:54:54;101825.09;;;11.99;100.00
73558;BME280;61829;53.286;10.434;2022-10-31T04:57:20;101821.56;;;11.98;100.00
73558;BME280;61829;53.286;10.434;2022-10-31T04:59:46;101820.72;;;11.98;100.00
73558;BME280;61829;53.286;10.434;2022-10-31T05:02:12;101820.88;;;11.96;100.00
73558;BME280;61829;53.286;10.434;2022-10-31T05:05:04;101819.00;;;11.97;100.00
73558;BME280;61829;53.286;10.434;2022-10-31T05:07:31;101819.84;;;11.97;100.00
73558;BME280;61829;53.286;10.434;2022-10-31T05:09:57;101823.56;;;11.96;100.00
73558;BME280;61829;53.286;10.434;2022-10-31T05:12:23;101819.00;;;11.97;100.00
73558;BME280;61829;53.286;10.434;2022-10-31T05:14:49;101825.25;;;11.97;100.00
73558;BME280;61829;53.286;10.434;2022-10-31T05:17:15;101823.56;;;11.96;100.00
73558;BME280;61829;53.286;10.434;2022-10-31T05:19:41;101826.28;;;11.96;100.00
73558;BME280;61829;53.286;10.434;2022-10-31T05:22:07;101835.41;;;11.95;100.00
73558;BME280;61829;53.286;10.434;2022-10-31T05:24:33;101837.28;;;11.95;100.00
73558;BME280;61829;53.286;10.434;2022-10-31T05:26:58;101830.16;;;11.94;100.00
73558;BME280;61829;53.286;10.434;2022-10-31T05:29:24;101838.09;;;11.95;100.00
73558;BME280;61829;53.286;10.434;2022-10-31T05:31:52;101844.16;;;11.97;100.00
73558;BME280;61829;53.286;10.434;2022-10-31T05:34:18;101846.03;;;11.97;100.00
73558;BME280;61829;53.286;10.434;2022-10-31T05:36:44;101845.03;;;11.98;100.00
73558;BME280;61829;53.286;10.434;2022-10-31T05:39:10;101833.19;;;11.99;100.00
73558;BME280;61829;53.286;10.434;2022-10-31T05:41:36;101838.44;;;12.00;100.00
73558;BME280;61829;53.286;10.434;2022-10-31T05:44:02;101835.75;;;12.00;100.00
73558;BME280;61829;53.286;10.434;2022-10-31T05:46:28;101834.72;;;12.01;100.00
73558;BME280;61829;53.286;10.434;2022-10-31T05:48:54;101839.78;;;12.04;100.00
73558;BME280;61829;53.286;10.434;2022-10-31T05:51:20;101829.81;;;12.05;100.00
73558;BME280;61829;53.286;10.434;2022-10-31T05:53:46;101833.19;;;12.07;100.00
73558;BME280;61829;53.286;10.434;2022-10-31T05:56:13;101840.28;;;12.08;100.00
73558;BME280;61829;53.286;10.434;2022-10-31T05:58:38;101834.72;;;12.09;100.00
73558;BME280;61829;53.286;10.434;2022-10-31T06:01:04;101832.66;;;12.11;100.00
73558;BME280;61829;53.286;10.434;2022-10-31T06:03:31;101834.19;;;12.14;100.00
73558;BME280;61829;53.286;10.434;2022-10-31T06:05:57;101837.75;;;12.15;100.00
73558;BME280;61829;53.286;10.434;2022-10-31T06:08:23;101835.72;;;12.17;100.00
73558;BME280;61829;53.286;10.434;2022-10-31T06:10:49;101834.72;;;12.18;100.00
73558;BME280;61829;53.286;10.434;2022-10-31T06:13:15;101831.00;;;12.19;100.00
73558;BME280;61829;53.286;10.434;2022-10-31T06:15:41;101841.66;;;12.20;100.00
73558;BME280;61829;53.286;10.434;2022-10-31T06:18:07;101850.41;;;12.22;100.00
73558;BME280;61829;53.286;10.434;2022-10-31T06:20:34;101852.94;;;12.24;100.00
73558;BME280;61829;53.286;10.434;2022-10-31T06:23:00;101856.50;;;12.24;100.00
73558;BME280;61829;53.286;10.434;2022-10-31T06:25:27;101855.47;;;12.25;100.00
73558;BME280;61829;53.286;10.434;2022-10-31T06:27:53;101855.31;;;12.27;100.00
73558;BME280;61829;53.286;10.434;2022-10-31T06:30:19;101852.41;;;12.28;100.00
73558;BME280;61829;53.286;10.434;2022-10-31T06:32:45;101866.59;;;12.30;100.00
73558;BME280;61829;53.286;10.434;2022-10-31T06:35:11;101858.50;;;12.30;100.00
73558;BME280;61829;53.286;10.434;2022-10-31T06:37:37;101862.03;;;12.31;100.00
73558;BME280;61829;53.286;10.434;2022-10-31T06:40:04;101866.28;;;12.33;100.00
73558;BME280;61829;53.286;10.434;2022-10-31T06:42:30;101869.81;;;12.34;100.00
73558;BME280;61829;53.286;10.434;2022-10-31T06:44:55;101872.34;;;12.35;100.00
73558;BME280;61829;53.286;10.434;2022-10-31T06:47:38;101880.31;;;12.37;100.00
73558;BME280;61829;53.286;10.434;2022-10-31T06:50:11;101884.50;;;12.40;100.00
73558;BME280;61829;53.286;10.434;2022-10-31T06:52:37;101894.13;;;12.42;100.00
73558;BME280;61829;53.286;10.434;2022-10-31T06:55:03;101892.94;;;12.45;100.00
73558;BME280;61829;53.286;10.434;2022-10-31T06:57:29;101904.59;;;12.45;100.00
73558;BME280;61829;53.286;10.434;2022-10-31T06:59:55;101905.28;;;12.47;100.00
73558;BME280;61829;53.286;10.434;2022-10-31T07:02:21;101914.91;;;12.50;100.00
73558;BME280;61829;53.286;10.434;2022-10-31T07:04:47;101913.03;;;12.50;100.00
73558;BME280;61829;53.286;10.434;2022-10-31T07:07:13;101914.75;;;12.51;100.00
73558;BME280;61829;53.286;10.434;2022-10-31T07:09:39;101926.22;;;12.53;100.00
73558;BME280;61829;53.286;10.434;2022-10-31T07:12:05;101919.81;;;12.54;100.00
73558;BME280;61829;53.286;10.434;2022-10-31T07:14:31;101913.22;;;12.57;100.00
73558;BME280;61829;53.286;10.434;2022-10-31T07:16:57;101910.34;;;12.58;100.00
73558;BME280;61829;53.286;10.434;2022-10-31T07:19:23;101910.00;;;12.62;100.00
73558;BME280;61829;53.286;10.434;2022-10-31T07:21:49;101906.09;;;12.64;100.00
73558;BME280;61829;53.286;10.434;2022-10-31T07:24:15;101912.00;;;12.68;100.00
73558;BME280;61829;53.286;10.434;2022-10-31T07:26:41;101913.53;;;12.70;100.00
73558;BME280;61829;53.286;10.434;2022-10-31T07:29:07;101918.59;;;12.73;100.00
73558;BME280;61829;53.286;10.434;2022-10-31T07:31:33;101911.00;;;12.77;100.00
73558;BME280;61829;53.286;10.434;2022-10-31T07:33:59;101916.88;;;12.80;100.00
73558;BME280;61829;53.286;10.434;2022-10-31T07:36:25;101919.41;;;12.82;100.00
73558;BME280;61829;53.286;10.434;2022-10-31T07:38:51;101924.50;;;12.85;100.00
73558;BME280;61829;53.286;10.434;2022-10-31T07:41:17;101924.16;;;12.88;100.00
73558;BME280;61829;53.286;10.434;2022-10-31T07:43:43;101922.09;;;12.90;100.00
73558;BME280;61829;53.286;10.434;2022-10-31T07:46:09;101929.69;;;12.95;100.00
73558;BME280;61829;53.286;10.434;2022-10-31T07:48:36;101932.22;;;12.96;100.00
73558;BME280;61829;53.286;10.434;2022-10-31T07:51:02;101934.75;;;12.98;100.00
73558;BME280;61829;53.286;10.434;2022-10-31T07:53:55;101930.88;;;13.00;100.00
73558;BME280;61829;53.286;10.434;2022-10-31T07:56:21;101938.63;;;13.03;100.00
73558;BME280;61829;53.286;10.434;2022-10-31T07:58:47;101941.00;;;13.07;100.00
73558;BME280;61829;53.286;10.434;2022-10-31T08:01:13;101946.91;;;13.10;100.00
73558;BME280;61829;53.286;10.434;2022-10-31T08:03:38;101939.44;;;13.12;100.00
73558;BME280;61829;53.286;10.434;2022-10-31T08:06:05;101945.53;;;13.14;100.00
73558;BME280;61829;53.286;10.434;2022-10-31T08:08:31;101936.22;;;13.17;100.00
73558;BME280;61829;53.286;10.434;2022-10-31T08:10:58;101934.38;;;13.17;100.00
73558;BME280;61829;53.286;10.434;2022-10-31T08:13:23;101936.72;;;13.20;100.00
73558;BME280;61829;53.286;10.434;2022-10-31T08:15:49;101939.91;;;13.24;100.00
73558;BME280;61829;53.286;10.434;2022-10-31T08:18:17;101937.06;;;13.25;100.00
73558;BME280;61829;53.286;10.434;2022-10-31T08:20:43;101947.56;;;13.29;100.00
73558;BME280;61829;53.286;10.434;2022-10-31T08:23:11;101946.53;;;13.30;100.00
73558;BME280;61829;53.286;10.434;2022-10-31T08:25:37;101941.94;;;13.30;100.00
73558;BME280;61829;53.286;10.434;2022-10-31T08:28:04;101949.06;;;13.31;100.00
73558;BME280;61829;53.286;10.434;2022-10-31T08:30:31;101944.97;;;13.35;100.00
73558;BME280;61829;53.286;10.434;2022-10-31T08:33:04;101941.75;;;13.40;100.00
73558;BME280;61829;53.286;10.434;2022-10-31T08:35:30;101940.56;;;13.42;100.00
73558;BME280;61829;53.286;10.434;2022-10-31T08:37:56;101942.72;;;13.47;100.00
73558;BME280;61829;53.286;10.434;2022-10-31T08:40:24;101948.44;;;13.52;100.00
73558;BME280;61829;53.286;10.434;2022-10-31T08:43:01;101949.59;;;13.58;100.00
73558;BME280;61829;53.286;10.434;2022-10-31T08:45:29;101948.91;;;13.64;100.00
73558;BME280;61829;53.286;10.434;2022-10-31T08:48:02;101948.91;;;13.64;100.00
73558;BME280;61829;53.286;10.434;2022-10-31T08:50:30;101945.34;;;13.63;100.00
73558;BME280;61829;53.286;10.434;2022-10-31T08:53:03;101956.03;;;13.65;100.00
73558;BME280;61829;53.286;10.434;2022-10-31T08:55:32;101948.19;;;13.70;100.00
73558;BME280;61829;53.286;10.434;2022-10-31T08:57:58;101941.75;;;13.71;99.90
73558;BME280;61829;53.286;10.434;2022-10-31T09:00:25;101937.66;;;13.75;99.78
73558;BME280;61829;53.286;10.434;2022-10-31T09:03:01;101932.91;;;13.77;99.47
73558;BME280;61829;53.286;10.434;2022-10-31T09:05:28;101938.34;;;13.77;99.37
73558;BME280;61829;53.286;10.434;2022-10-31T09:07:58;101934.06;;;13.83;99.46
73558;BME280;61829;53.286;10.434;2022-10-31T09:10:25;101937.25;;;13.86;99.45
73558;BME280;61829;53.286;10.434;2022-10-31T09:12:59;101936.06;;;13.89;98.93
73558;BME280;61829;53.286;10.434;2022-10-31T09:15:27;101936.06;;;13.89;98.15
73558;BME280;61829;53.286;10.434;2022-10-31T09:17:53;101929.78;;;13.88;98.63
73558;BME280;61829;53.286;10.434;2022-10-31T09:20:21;101931.31;;;13.91;98.25
73558;BME280;61829;53.286;10.434;2022-10-31T09:22:47;101934.84;;;13.91;97.63
73558;BME280;61829;53.286;10.434;2022-10-31T09:25:13;101932.34;;;13.90;97.25
73558;BME280;61829;53.286;10.434;2022-10-31T09:27:39;101930.09;;;13.93;97.22
73558;BME280;61829;53.286;10.434;2022-10-31T09:30:05;101932.81;;;13.93;95.28
73558;BME280;61829;53.286;10.434;2022-10-31T09:32:31;101928.13;;;13.87;95.27
73558;BME280;61829;53.286;10.434;2022-10-31T09:34:58;101926.25;;;13.88;95.67
73558;BME280;61829;53.286;10.434;2022-10-31T09:37:23;101933.19;;;13.90;95.80
73558;BME280;61829;53.286;10.434;2022-10-31T09:39:49;101933.50;;;13.96;96.11
73558;BME280;61829;53.286;10.434;2022-10-31T09:48:15;101931.06;;;14.01;96.40
73558;BME280;61829;53.286;10.434;2022-10-31T09:50:52;101926.13;;;14.04;96.34
73558;BME280;61829;53.286;10.434;2022-10-31T09:53:34;101929.31;;;14.08;96.04
73558;BME280;61829;53.286;10.434;2022-10-31T09:56:07;101924.38;;;14.11;96.17
73558;BME280;61829;53.286;10.434;2022-10-31T09:58:41;101931.31;;;14.14;95.33
73558;BME280;61829;53.286;10.434;2022-10-31T10:01:20;101918.59;;;14.14;95.00
73558;BME280;61829;53.286;10.434;2022-10-31T10:03:50;101926.56;;;14.16;94.60
73558;BME280;61829;53.286;10.434;2022-10-31T10:06:23;101917.22;;;14.19;94.66
73558;BME280;61829;53.286;10.434;2022-10-31T10:08:50;101921.25;;;14.23;93.67
73558;BME280;61829;53.286;10.434;2022-10-31T10:14:39;101936.59;;;14.30;92.42
73558;BME280;61829;53.286;10.434;2022-10-31T10:19:54;101939.41;;;14.37;92.78
73558;BME280;61829;53.286;10.434;2022-10-31T10:25:14;101937.47;;;14.46;92.36
73558;BME280;61829;53.286;10.434;2022-10-31T10:30:30;101940.16;;;14.54;92.11
73558;BME280;61829;53.286;10.434;2022-10-31T10:33:02;101936.06;;;14.58;91.60
73558;BME280;61829;53.286;10.434;2022-10-31T10:35:33;101932.78;;;14.63;91.45
73558;BME280;61829;53.286;10.434;2022-10-31T10:41:18;101917.75;;;14.75;90.86
73558;BME280;61829;53.286;10.434;2022-10-31T10:43:44;101921.75;;;14.79;90.22
73558;BME280;61829;53.286;10.434;2022-10-31T10:51:51;101918.88;;;14.95;88.65
73558;BME280;61829;53.286;10.434;2022-10-31T10:59:44;101904.94;;;14.98;86.13
73558;BME280;61829;53.286;10.434;2022-10-31T11:02:18;101904.47;;;14.95;85.81
73558;BME280;61829;53.286;10.434;2022-10-31T11:04:47;101910.25;;;14.92;85.55
73558;BME280;61829;53.286;10.434;2022-10-31T11:07:15;101911.00;;;14.86;84.84
73558;BME280;61829;53.286;10.434;2022-10-31T11:09:41;101914.84;;;14.76;85.21
73558;BME280;61829;53.286;10.434;2022-10-31T11:12:19;101909.47;;;14.68;85.86
73558;BME280;61829;53.286;10.434;2022-10-31T11:14:50;101911.34;;;14.68;86.28
73558;BME280;61829;53.286;10.434;2022-10-31T11:17:29;101908.09;;;14.72;85.83
73558;BME280;61829;53.286;10.434;2022-10-31T11:22:26;101911.94;;;14.78;85.77
73558;BME280;61829;53.286;10.434;2022-10-31T11:24:53;101904.81;;;14.77;85.88
73558;BME280;61829;53.286;10.434;2022-10-31T11:28:15;101911.75;;;14.79;86.76
73558;BME280;61829;53.286;10.434;2022-10-31T11:30:58;101898.47;;;14.85;86.83
73558;BME280;61829;53.286;10.434;2022-10-31T11:36:25;101887.91;;;14.90;84.88
73558;BME280;61829;53.286;10.434;2022-10-31T11:38:53;101895.84;;;14.91;84.63
73558;BME280;61829;53.286;10.434;2022-10-31T11:46:26;101896.88;;;14.90;84.39
73558;BME280;61829;53.286;10.434;2022-10-31T11:48:56;101896.88;;;14.90;84.67
73558;BME280;61829;53.286;10.434;2022-10-31T11:51:25;101887.91;;;14.90;84.22
73558;BME280;61829;53.286;10.434;2022-10-31T11:53:54;101890.59;;;14.90;83.74
73558;BME280;61829;53.286;10.434;2022-10-31T11:56:23;101895.44;;;14.94;83.83
73558;BME280;61829;53.286;10.434;2022-10-31T11:59:04;101884.03;;;14.99;83.92
73558;BME280;61829;53.286;10.434;2022-10-31T12:01:32;101885.91;;;14.98;83.64
73558;BME280;61829;53.286;10.434;2022-10-31T12:04:09;101886.22;;;15.03;82.57
73558;BME280;61829;53.286;10.434;2022-10-31T12:06:36;101876.19;;;15.04;82.99
73558;BME280;61829;53.286;10.434;2022-10-31T12:09:24;101883.94;;;15.07;83.66
73558;BME280;61829;53.286;10.434;2022-10-31T12:12:22;101878.41;;;15.15;82.78
73558;BME280;61829;53.286;10.434;2022-10-31T12:23:52;101875.97;;;15.20;80.08
73558;BME280;61829;53.286;10.434;2022-10-31T12:40:46;101863.63;;;15.18;80.15
73558;BME280;61829;53.286;10.434;2022-10-31T12:43:35;101869.69;;;15.20;80.40
73558;BME280;61829;53.286;10.434;2022-10-31T12:46:08;101870.81;;;15.25;80.18
73558;BME280;61829;53.286;10.434;2022-10-31T12:49:03;101868.09;;;15.25;79.84
73558;BME280;61829;53.286;10.434;2022-10-31T12:57:29;101854.72;;;15.24;79.47
73558;BME280;61829;53.286;10.434;2022-10-31T13:00:04;101850.13;;;15.24;79.62
73558;BME280;61829;53.286;10.434;2022-10-31T13:02:51;101848.91;;;15.27;80.16
73558;BME280;61829;53.286;10.434;2022-10-31T13:05:30;101855.00;;;15.29;80.25
73558;BME280;61829;53.286;10.434;2022-10-31T13:08:09;101836.81;;;15.30;80.25
73558;BME280;61829;53.286;10.434;2022-10-31T13:10:39;101842.91;;;15.32;79.73
73558;BME280;61829;53.286;10.434;2022-10-31T13:13:21;101836.81;;;15.30;80.09
73558;BME280;61829;53.286;10.434;2022-10-31T13:16:03;101838.41;;;15.24;80.36
73558;BME280;61829;53.286;10.434;2022-10-31T13:18:39;101825.88;;;15.23;80.26
73558;BME280;61829;53.286;10.434;2022-10-31T13:21:11;101824.41;;;15.20;80.24
73558;BME280;61829;53.286;10.434;2022-10-31T13:23:39;101823.91;;;15.17;79.99
73558;BME280;61829;53.286;10.434;2022-10-31T13:26:09;101825.78;;;15.16;79.98
73558;BME280;61829;53.286;10.434;2022-10-31T13:28:47;101814.03;;;15.09;80.58
73558;BME280;61829;53.286;10.434;2022-10-31T13:31:14;101820.00;;;15.04;80.94
73558;BME280;61829;53.286;10.434;2022-10-31T13:33:51;101820.19;;;15.03;80.95
73558;BME280;61829;53.286;10.434;2022-10-31T13:39:14;101804.50;;;14.98;81.41
73558;BME280;61829;53.286;10.434;2022-10-31T13:44:27;101802.63;;;14.99;81.69
73558;BME280;61829;53.286;10.434;2022-10-31T13:46:55;101803.28;;;15.01;81.88
73558;BME280;61829;53.286;10.434;2022-10-31T13:51:50;101776.50;;;14.98;81.86
73558;BME280;61829;53.286;10.434;2022-10-31T13:54:31;101788.88;;;15.00;82.50
73558;BME280;61829;53.286;10.434;2022-10-31T13:56:58;101781.28;;;14.96;82.13
73558;BME280;61829;53.286;10.434;2022-10-31T13:59:25;101785.53;;;14.84;81.95
73558;BME280;61829;53.286;10.434;2022-10-31T14:01:58;101785.25;;;14.78;82.17
73558;BME280;61829;53.286;10.434;2022-10-31T14:04:38;101778.50;;;14.74;82.31
73558;BME280;61829;53.286;10.434;2022-10-31T14:07:13;101776.38;;;14.70;82.63
73558;BME280;61829;53.286;10.434;2022-10-31T14:10:02;101783.19;;;14.66;83.08
73558;BME280;61829;53.286;10.434;2022-10-31T14:12:40;101772.91;;;14.61;83.30
73558;BME280;61829;53.286;10.434;2022-10-31T14:15:25;101775.81;;;14.59;83.61
73558;BME280;61829;53.286;10.434;2022-10-31T14:18:01;101777.47;;;14.60;83.50
73558;BME280;61829;53.286;10.434;2022-10-31T14:20:37;101771.97;;;14.54;83.85
73558;BME280;61829;53.286;10.434;2022-10-31T14:28:43;101762.69;;;14.48;84.63
73558;BME280;61829;53.286;10.434;2022-10-31T14:31:39;101753.06;;;14.46;84.62
73558;BME280;61829;53.286;10.434;2022-10-31T14:34:18;101753.06;;;14.46;85.23
73558;BME280;61829;53.286;10.434;2022-10-31T14:47:22;101739.41;;;14.24;85.24
73558;BME280;61829;53.286;10.434;2022-10-31T14:52:24;101731.09;;;14.11;85.59
73558;BME280;61829;53.286;10.434;2022-10-31T14:54:54;101722.38;;;14.01;85.82
73558;BME280;61829;53.286;10.434;2022-10-31T14:57:26;101727.72;;;13.94;86.00
73558;BME280;61829;53.286;10.434;2022-10-31T15:00:01;101727.41;;;13.89;86.14